createdAt,value
2017-12-20T00:00:29.672Z,3.16
2017-12-20T00:01:39.113Z,3.16
2017-12-20T00:02:48.816Z,3.18
2017-12-20T00:03:58.263Z,3.11
2017-12-20T00:05:08.256Z,3.06
2017-12-20T00:06:18.219Z,3.05
2017-12-20T00:07:28.177Z,3.11
2017-12-20T00:08:37.868Z,3.11
2017-12-20T00:09:47.817Z,3.15
2017-12-20T00:10:57.774Z,3.08
2017-12-20T00:12:07.738Z,3.16
2017-12-20T00:13:17.431Z,3.06
2017-12-20T00:14:27.142Z,3.13
2017-12-20T00:15:37.092Z,3.12
2017-12-20T00:16:47.043Z,3.12
2017-12-20T00:17:56.498Z,3.18
2017-12-20T00:19:06.185Z,3.03
2017-12-20T00:20:15.621Z,3.05
2017-12-20T00:21:25.586Z,3.06
2017-12-20T00:22:34.764Z,3.06
2017-12-20T00:23:44.192Z,3
2017-12-20T00:24:54.156Z,3.06
2017-12-20T00:26:03.337Z,2.98
2017-12-20T00:27:13.289Z,2.97
2017-12-20T00:28:23.246Z,3.03
2017-12-20T00:29:33.192Z,2.95
2017-12-20T00:30:42.882Z,2.95
2017-12-20T00:31:52.083Z,3.05
2017-12-20T00:33:02.042Z,2.98
2017-12-20T00:34:11.993Z,3.05
2017-12-20T00:35:21.680Z,3.05
2017-12-20T00:36:31.377Z,3.08
2017-12-20T00:37:41.329Z,3.06
2017-12-20T00:38:51.284Z,3
2017-12-20T00:40:00.971Z,2.97
2017-12-20T00:41:10.664Z,3.01
2017-12-20T00:42:20.343Z,2.91
2017-12-20T00:43:29.777Z,3
2017-12-20T00:44:39.207Z,2.88
2017-12-20T00:45:48.892Z,2.94
2017-12-20T00:46:58.665Z,2.9
2017-12-20T00:48:08.626Z,2.9
2017-12-20T00:49:18.066Z,2.83
2017-12-20T00:50:27.770Z,2.82
2017-12-20T00:51:37.733Z,2.88
2017-12-20T00:52:47.432Z,2.82
2017-12-20T00:53:57.118Z,2.82
2017-12-20T00:55:06.813Z,2.77
2017-12-20T00:56:16.752Z,2.77
2017-12-20T00:57:26.696Z,2.77
2017-12-20T00:58:36.661Z,2.76
2017-12-20T00:59:46.093Z,2.79
2017-12-20T01:00:55.519Z,2.75
2017-12-20T01:02:04.950Z,2.75
2017-12-20T01:03:14.115Z,2.77
2017-12-20T01:04:23.301Z,2.72
2017-12-20T01:05:33.007Z,2.73
2017-12-20T01:06:42.704Z,2.76
2017-12-20T01:07:52.652Z,2.7
2017-12-20T01:09:02.610Z,2.7
2017-12-20T01:10:12.555Z,2.75
2017-12-20T01:11:22.507Z,2.69
2017-12-20T01:12:32.206Z,2.65
2017-12-20T01:13:42.171Z,2.73
2017-12-20T01:14:51.601Z,2.62
2017-12-20T01:16:01.303Z,2.59
2017-12-20T01:17:10.733Z,2.61
2017-12-20T01:18:20.424Z,2.64
2017-12-20T01:19:30.375Z,2.7
2017-12-20T01:20:40.333Z,2.69
2017-12-20T01:21:50.279Z,2.62
2017-12-20T01:22:59.711Z,2.7
2017-12-20T01:24:09.399Z,2.68
2017-12-20T01:25:19.369Z,2.68
2017-12-20T01:26:29.135Z,2.69
2017-12-20T01:27:38.821Z,2.65
2017-12-20T01:28:48.785Z,2.65
2017-12-20T01:29:58.221Z,2.7
2017-12-20T01:31:07.910Z,2.68
2017-12-20T01:32:17.851Z,2.69
2017-12-20T01:33:27.810Z,2.69
2017-12-20T01:34:37.762Z,2.72
2017-12-20T01:35:47.202Z,2.65
2017-12-20T01:36:56.653Z,2.69
2017-12-20T01:38:06.085Z,2.69
2017-12-20T01:39:15.509Z,2.7
2017-12-20T01:40:25.196Z,2.65
2017-12-20T01:41:34.885Z,2.7
2017-12-20T01:42:44.580Z,2.65
2017-12-20T01:43:54.291Z,2.68
2017-12-20T01:45:03.736Z,2.73
2017-12-20T01:46:13.703Z,2.7
2017-12-20T01:47:23.128Z,2.76
2017-12-20T01:48:32.825Z,2.7
2017-12-20T01:49:42.268Z,2.79
2017-12-20T01:50:52.222Z,2.77
2017-12-20T01:52:02.195Z,2.69
2017-12-20T01:53:11.886Z,2.72
2017-12-20T01:54:21.847Z,2.69
2017-12-20T01:55:31.282Z,2.79
2017-12-20T01:56:40.472Z,2.73
2017-12-20T01:57:50.410Z,2.77
2017-12-20T01:59:00.373Z,2.73
2017-12-20T02:00:10.066Z,2.76
2017-12-20T02:01:19.819Z,2.76
2017-12-20T02:02:29.253Z,2.76
2017-12-20T02:03:38.683Z,2.75
2017-12-20T02:04:48.629Z,2.72
2017-12-20T02:05:58.065Z,2.79
2017-12-20T02:07:08.024Z,2.87
2017-12-20T02:08:17.984Z,2.82
2017-12-20T02:09:27.680Z,2.8
2017-12-20T02:10:37.636Z,2.8
2017-12-20T02:11:47.339Z,2.83
2017-12-20T02:12:56.511Z,2.94
2017-12-20T02:14:06.218Z,2.9
2017-12-20T02:15:16.229Z,2.93
2017-12-20T02:16:26.182Z,3
2017-12-20T02:17:35.867Z,2.9
2017-12-20T02:18:45.823Z,2.95
2017-12-20T02:19:55.773Z,2.97
2017-12-20T02:21:05.205Z,2.98
2017-12-20T02:22:14.634Z,2.97
2017-12-20T02:23:24.336Z,2.95
2017-12-20T02:24:33.772Z,2.95
2017-12-20T02:25:43.464Z,2.97
2017-12-20T02:26:53.161Z,2.91
2017-12-20T02:28:02.856Z,3.01
2017-12-20T02:29:12.805Z,2.9
2017-12-20T02:30:22.756Z,3.01
2017-12-20T02:31:32.742Z,2.95
2017-12-20T02:32:42.186Z,2.97
2017-12-20T02:33:51.884Z,2.94
2017-12-20T02:35:01.063Z,2.94
2017-12-20T02:36:10.755Z,2.9
2017-12-20T02:37:20.449Z,2.94
2017-12-20T02:38:29.899Z,2.95
2017-12-20T02:39:39.329Z,2.94
2017-12-20T02:40:49.020Z,2.98
2017-12-20T02:41:58.966Z,2.91
2017-12-20T02:43:08.664Z,2.91
2017-12-20T02:44:18.387Z,2.93
2017-12-20T02:45:27.824Z,2.97
2017-12-20T02:46:37.785Z,2.95
2017-12-20T02:47:47.488Z,2.98
2017-12-20T02:48:57.176Z,2.95
2017-12-20T02:50:06.628Z,2.91
2017-12-20T02:51:16.318Z,2.98
2017-12-20T02:52:26.263Z,3
2017-12-20T02:53:36.208Z,2.93
2017-12-20T02:54:46.165Z,3.05
2017-12-20T02:55:55.935Z,2.91
2017-12-20T02:57:05.904Z,2.98
2017-12-20T02:58:15.352Z,2.91
2017-12-20T02:59:25.294Z,2.93
2017-12-20T03:00:34.984Z,2.94
2017-12-20T03:01:44.414Z,2.94
2017-12-20T03:02:54.100Z,2.95
2017-12-20T03:04:04.050Z,2.98
2017-12-20T03:05:14.017Z,2.95
2017-12-20T03:06:23.447Z,3.01
2017-12-20T03:07:33.172Z,2.95
2017-12-20T03:08:43.124Z,2.95
2017-12-20T03:09:52.814Z,3
2017-12-20T03:11:02.764Z,2.93
2017-12-20T03:12:12.710Z,2.95
2017-12-20T03:13:22.648Z,3.01
2017-12-20T03:14:32.602Z,3
2017-12-20T03:15:42.294Z,3.03
2017-12-20T03:16:51.982Z,3.05
2017-12-20T03:18:01.424Z,3
2017-12-20T03:19:11.120Z,3.05
2017-12-20T03:20:21.075Z,3.05
2017-12-20T03:21:31.018Z,3.05
2017-12-20T03:22:39.928Z,3.01
2017-12-20T03:23:49.875Z,2.97
2017-12-20T03:24:59.306Z,2.94
2017-12-20T03:26:09.259Z,3
2017-12-20T03:27:18.979Z,2.98
2017-12-20T03:28:28.668Z,2.94
2017-12-20T03:29:38.350Z,2.94
2017-12-20T03:30:48.302Z,2.88
2017-12-20T03:31:58.251Z,2.82
2017-12-20T03:33:07.688Z,2.72
2017-12-20T03:34:17.643Z,2.76
2017-12-20T03:35:27.333Z,2.76
2017-12-20T03:36:36.773Z,2.76
2017-12-20T03:37:46.464Z,2.8
2017-12-20T03:38:56.201Z,2.79
2017-12-20T03:40:05.894Z,2.72
2017-12-20T03:41:15.649Z,2.68
2017-12-20T03:42:25.588Z,2.7
2017-12-20T03:43:35.280Z,2.64
2017-12-20T03:44:44.980Z,2.65
2017-12-20T03:45:54.931Z,2.7
2017-12-20T03:47:04.102Z,2.62
2017-12-20T03:48:13.796Z,2.64
2017-12-20T03:49:23.478Z,2.72
2017-12-20T03:50:33.428Z,2.68
2017-12-20T03:51:43.123Z,2.57
2017-12-20T03:52:52.822Z,2.58
2017-12-20T03:54:02.511Z,2.58
2017-12-20T03:55:11.944Z,2.52
2017-12-20T03:56:21.632Z,2.52
2017-12-20T03:57:31.587Z,2.47
2017-12-20T03:58:41.520Z,2.5
2017-12-20T03:59:51.460Z,2.47
2017-12-20T04:01:01.476Z,2.54
2017-12-20T04:02:11.181Z,2.47
2017-12-20T04:03:20.634Z,2.43
2017-12-20T04:04:30.325Z,2.54
2017-12-20T04:05:40.278Z,2.5
2017-12-20T04:06:49.978Z,2.5
2017-12-20T04:07:59.668Z,2.47
2017-12-20T04:09:08.844Z,2.47
2017-12-20T04:10:18.542Z,2.44
2017-12-20T04:11:28.232Z,2.5
2017-12-20T04:12:37.946Z,2.57
2017-12-20T04:13:47.903Z,2.46
2017-12-20T04:14:57.852Z,2.57
2017-12-20T04:16:07.294Z,2.58
2017-12-20T04:17:16.980Z,2.59
2017-12-20T04:18:26.661Z,2.57
2017-12-20T04:19:36.348Z,2.68
2017-12-20T04:20:45.775Z,2.69
2017-12-20T04:21:55.221Z,2.65
2017-12-20T04:23:05.178Z,2.73
2017-12-20T04:24:15.145Z,2.68
2017-12-20T04:25:25.113Z,2.64
2017-12-20T04:26:35.050Z,2.65
2017-12-20T04:27:44.997Z,2.64
2017-12-20T04:28:54.949Z,2.68
2017-12-20T04:30:04.643Z,2.65
2017-12-20T04:31:14.347Z,2.65
2017-12-20T04:32:24.040Z,2.69
2017-12-20T04:33:33.985Z,2.65
2017-12-20T04:34:43.424Z,2.73
2017-12-20T04:35:53.374Z,2.79
2017-12-20T04:37:03.068Z,2.73
2017-12-20T04:38:13.010Z,2.72
2017-12-20T04:39:22.958Z,2.79
2017-12-20T04:40:32.906Z,2.7
2017-12-20T04:41:42.905Z,2.77
2017-12-20T04:42:52.334Z,2.79
2017-12-20T04:44:02.271Z,2.76
2017-12-20T04:45:11.781Z,2.79
2017-12-20T04:46:21.472Z,2.76
2017-12-20T04:47:31.164Z,2.77
2017-12-20T04:48:41.112Z,2.73
2017-12-20T04:49:50.546Z,2.73
2017-12-20T04:51:00.496Z,2.73
2017-12-20T04:52:10.446Z,2.8
2017-12-20T04:53:20.136Z,2.76
2017-12-20T04:54:30.094Z,2.75
2017-12-20T04:55:39.800Z,2.75
2017-12-20T04:56:49.487Z,2.75
2017-12-20T04:57:59.443Z,2.77
2017-12-20T04:59:09.137Z,2.77
2017-12-20T05:00:19.110Z,2.75
2017-12-20T05:01:29.050Z,2.77
2017-12-20T05:02:38.994Z,2.73
2017-12-20T05:03:48.951Z,2.69
2017-12-20T05:04:58.901Z,2.75
2017-12-20T05:06:08.334Z,2.72
2017-12-20T05:07:18.289Z,2.68
2017-12-20T05:08:27.997Z,2.68
2017-12-20T05:09:37.423Z,2.68
2017-12-20T05:10:47.436Z,2.65
2017-12-20T05:11:57.398Z,2.73
2017-12-20T05:13:07.373Z,2.68
2017-12-20T05:14:17.321Z,2.65
2017-12-20T05:15:27.288Z,2.69
2017-12-20T05:16:37.001Z,2.65
2017-12-20T05:17:46.714Z,2.72
2017-12-20T05:18:56.700Z,2.59
2017-12-20T05:20:06.446Z,2.61
2017-12-20T05:21:16.394Z,2.51
2017-12-20T05:22:26.338Z,2.46
2017-12-20T05:23:36.032Z,2.43
2017-12-20T05:24:45.765Z,2.44
2017-12-20T05:25:55.710Z,2.41
2017-12-20T05:27:05.396Z,2.3
2017-12-20T05:28:14.309Z,2.28
2017-12-20T05:29:24.257Z,2.28
2017-12-20T05:30:33.957Z,2.26
2017-12-20T05:31:43.916Z,2.21
2017-12-20T05:32:53.617Z,2.26
2017-12-20T05:34:03.595Z,2.23
2017-12-20T05:35:13.280Z,2.28
2017-12-20T05:36:23.285Z,2.28
2017-12-20T05:37:32.975Z,2.22
2017-12-20T05:38:42.922Z,2.16
2017-12-20T05:39:52.615Z,2.23
2017-12-20T05:41:02.317Z,2.14
2017-12-20T05:42:12.267Z,2.1
2017-12-20T05:43:21.958Z,2.1
2017-12-20T05:44:31.386Z,2.1
2017-12-20T05:45:40.825Z,2.04
2017-12-20T05:46:50.775Z,2.19
2017-12-20T05:48:00.721Z,2.08
2017-12-20T05:49:10.407Z,2.1
2017-12-20T05:50:20.102Z,2.16
2017-12-20T05:51:30.045Z,2.18
2017-12-20T05:52:39.733Z,2.21
2017-12-20T05:53:48.909Z,2.22
2017-12-20T05:54:58.930Z,2.21
2017-12-20T05:56:08.307Z,2.14
2017-12-20T05:57:17.984Z,2.16
2017-12-20T05:58:27.685Z,2.14
2017-12-20T05:59:37.379Z,2.22
2017-12-20T06:00:46.817Z,2.14
2017-12-20T06:01:56.759Z,2.21
2017-12-20T06:03:06.486Z,2.22
2017-12-20T06:04:16.484Z,2.28
2017-12-20T06:05:26.171Z,2.28
2017-12-20T06:06:35.870Z,2.22
2017-12-20T06:07:45.558Z,2.19
2017-12-20T06:08:55.496Z,2.1
2017-12-20T06:10:05.442Z,2.03
2017-12-20T06:11:15.391Z,2.03
2017-12-20T06:12:24.819Z,2.03
2017-12-20T06:13:34.523Z,1.97
2017-12-20T06:14:44.223Z,2.01
2017-12-20T06:15:54.171Z,1.97
2017-12-20T06:17:03.873Z,1.89
2017-12-20T06:18:13.837Z,2.03
2017-12-20T06:19:23.788Z,1.98
2017-12-20T06:20:33.484Z,1.89
2017-12-20T06:21:43.187Z,1.89
2017-12-20T06:22:53.131Z,1.81
2017-12-20T06:24:02.306Z,1.79
2017-12-20T06:25:11.762Z,1.82
2017-12-20T06:26:21.713Z,1.76
2017-12-20T06:27:31.136Z,1.82
2017-12-20T06:28:40.824Z,1.76
2017-12-20T06:29:49.986Z,1.67
2017-12-20T06:31:00.233Z,1.71
2017-12-20T06:32:09.682Z,1.7
2017-12-20T06:33:19.386Z,1.74
2017-12-20T06:34:29.080Z,1.68
2017-12-20T06:35:39.033Z,1.63
2017-12-20T06:36:48.734Z,1.75
2017-12-20T06:37:58.696Z,1.7
2017-12-20T06:39:08.678Z,1.66
2017-12-20T06:40:18.661Z,1.63
2017-12-20T06:41:28.627Z,1.64
2017-12-20T06:42:38.586Z,1.67
2017-12-20T06:43:48.349Z,1.61
2017-12-20T06:44:58.321Z,1.6
2017-12-20T06:46:07.761Z,1.78
2017-12-20T06:47:17.708Z,1.67
2017-12-20T06:48:27.646Z,1.67
2017-12-20T06:49:37.074Z,1.71
2017-12-20T06:50:46.251Z,1.76
2017-12-20T06:51:56.251Z,1.79
2017-12-20T06:53:06.207Z,1.78
2017-12-20T06:54:16.197Z,1.75
2017-12-20T06:55:25.980Z,1.76
2017-12-20T06:56:35.742Z,1.84
2017-12-20T06:57:45.435Z,1.84
2017-12-20T06:58:55.124Z,1.79
2017-12-20T07:00:04.812Z,1.88
2017-12-20T07:01:14.760Z,2
2017-12-20T07:02:24.466Z,1.97
2017-12-20T07:03:33.896Z,2.01
2017-12-20T07:04:43.592Z,1.98
2017-12-20T07:05:53.285Z,2.08
2017-12-20T07:07:03.246Z,2.01
2017-12-20T07:08:12.683Z,2.1
2017-12-20T07:09:22.391Z,2.16
2017-12-20T07:10:32.360Z,2.16
2017-12-20T07:11:42.079Z,2.3
2017-12-20T07:12:51.509Z,2.3
2017-12-20T07:14:01.453Z,2.3
2017-12-20T07:15:11.420Z,2.26
2017-12-20T07:16:21.468Z,2.37
2017-12-20T07:17:30.896Z,2.3
2017-12-20T07:18:40.861Z,2.32
2017-12-20T07:19:50.553Z,2.34
2017-12-20T07:20:59.991Z,2.34
2017-12-20T07:22:09.717Z,2.3
2017-12-20T07:23:19.421Z,2.28
2017-12-20T07:24:29.169Z,2.14
2017-12-20T07:25:38.875Z,2.15
2017-12-20T07:26:48.571Z,2.08
2017-12-20T07:27:58.305Z,2.08
2017-12-20T07:29:07.779Z,2.04
2017-12-20T07:30:17.470Z,2.05
2017-12-20T07:31:27.442Z,2
2017-12-20T07:32:37.410Z,2.04
2017-12-20T07:33:47.148Z,2.03
2017-12-20T07:34:56.864Z,2.08
2017-12-20T07:36:06.609Z,2
2017-12-20T07:37:16.551Z,2.07
2017-12-20T07:38:26.274Z,2.03
2017-12-20T07:39:36.249Z,2.04
2017-12-20T07:40:46.256Z,1.98
2017-12-20T07:41:55.694Z,2.04
2017-12-20T07:43:05.396Z,2.08
2017-12-20T07:44:14.887Z,2.07
2017-12-20T07:45:24.622Z,2.07
2017-12-20T07:46:34.606Z,2.15
2017-12-20T07:47:44.656Z,2.18
2017-12-20T07:48:54.121Z,2.12
2017-12-20T07:50:03.829Z,2.12
2017-12-20T07:51:13.850Z,2.18
2017-12-20T07:52:23.567Z,2.19
2017-12-20T07:53:33.565Z,2.23
2017-12-20T07:54:43.621Z,2.14
2017-12-20T07:55:53.341Z,2.22
2017-12-20T07:57:03.323Z,2.23
2017-12-20T07:58:13.045Z,2.26
2017-12-20T07:59:22.562Z,2.28
2017-12-20T08:00:32.275Z,2.3
2017-12-20T08:01:42.248Z,2.3
2017-12-20T08:02:51.441Z,2.26
2017-12-20T08:04:01.158Z,2.26
2017-12-20T08:05:11.154Z,2.33
2017-12-20T08:06:21.122Z,2.26
2017-12-20T08:07:31.080Z,2.26
2017-12-20T08:08:41.054Z,2.23
2017-12-20T08:09:50.770Z,2.28
2017-12-20T08:11:00.757Z,2.28
2017-12-20T08:12:10.515Z,2.26
2017-12-20T08:13:20.532Z,2.22
2017-12-20T08:14:30.568Z,2.15
2017-12-20T08:15:40.575Z,2.14
2017-12-20T08:16:50.300Z,2.26
2017-12-20T08:18:00.018Z,2.25
2017-12-20T08:19:10.079Z,2.14
2017-12-20T08:20:19.533Z,2.15
2017-12-20T08:21:29.497Z,2.3
2017-12-20T08:22:39.230Z,2.18
2017-12-20T08:23:49.193Z,2.28
2017-12-20T08:24:59.185Z,2.3
2017-12-20T08:26:08.924Z,2.33
2017-12-20T08:27:18.907Z,2.23
2017-12-20T08:28:28.863Z,2.32
2017-12-20T08:29:38.847Z,2.28
2017-12-20T08:30:48.796Z,2.28
2017-12-20T08:31:58.764Z,2.3
2017-12-20T08:33:08.474Z,2.3
2017-12-20T08:34:18.181Z,2.23
2017-12-20T08:35:27.916Z,2.32
2017-12-20T08:36:37.882Z,2.33
2017-12-20T08:37:47.852Z,2.3
2017-12-20T08:38:57.794Z,2.36
2017-12-20T08:40:07.491Z,2.33
2017-12-20T08:41:17.452Z,2.33
2017-12-20T08:42:27.411Z,2.33
2017-12-20T08:43:37.110Z,2.25
2017-12-20T08:44:46.814Z,2.33
2017-12-20T08:45:56.795Z,2.25
2017-12-20T08:47:06.765Z,2.26
2017-12-20T08:48:16.757Z,2.4
2017-12-20T08:49:26.454Z,2.41
2017-12-20T08:50:36.172Z,2.41
2017-12-20T08:51:45.886Z,2.43
2017-12-20T08:52:55.855Z,2.46
2017-12-20T08:54:05.557Z,2.43
2017-12-20T08:55:15.327Z,2.46
2017-12-20T08:56:25.333Z,2.46
2017-12-20T08:57:35.292Z,2.46
2017-12-20T08:58:45.020Z,2.55
2017-12-20T08:59:54.999Z,2.54
2017-12-20T09:01:05.007Z,2.61
2017-12-20T09:02:14.968Z,2.65
2017-12-20T09:03:24.922Z,2.7
2017-12-20T09:04:34.376Z,2.69
2017-12-20T09:05:44.096Z,2.72
2017-12-20T09:06:54.147Z,2.72
2017-12-20T09:08:03.925Z,2.85
2017-12-20T09:09:13.719Z,2.8
2017-12-20T09:10:23.170Z,2.76
2017-12-20T09:11:33.147Z,2.85
2017-12-20T09:12:43.118Z,2.87
2017-12-20T09:13:52.591Z,2.95
2017-12-20T09:15:02.642Z,2.97
2017-12-20T09:16:12.657Z,3.03
2017-12-20T09:17:22.372Z,3.05
2017-12-20T09:18:32.582Z,3.09
2017-12-20T09:19:42.609Z,3.09
2017-12-20T09:20:52.624Z,3.08
2017-12-20T09:22:02.068Z,3.21
2017-12-20T09:23:12.025Z,3.16
2017-12-20T09:24:21.993Z,3.15
2017-12-20T09:25:31.690Z,3.19
2017-12-20T09:26:41.130Z,3.24
2017-12-20T09:27:50.585Z,3.24
2017-12-20T09:29:00.284Z,3.18
2017-12-20T09:30:10.271Z,3.26
2017-12-20T09:31:20.256Z,3.09
2017-12-20T09:32:29.967Z,3.15
2017-12-20T09:33:39.983Z,3.01
2017-12-20T09:34:49.708Z,3.03
2017-12-20T09:35:59.421Z,3.05
2017-12-20T09:37:09.378Z,3.03
2017-12-20T09:38:19.360Z,3.01
2017-12-20T09:39:29.323Z,2.95
2017-12-20T09:40:38.785Z,3
2017-12-20T09:41:48.744Z,2.98
2017-12-20T09:42:58.766Z,2.97
2017-12-20T09:44:08.719Z,3.01
2017-12-20T09:45:18.458Z,2.94
2017-12-20T09:46:28.476Z,3.06
2017-12-20T09:47:38.167Z,3.09
2017-12-20T09:48:47.610Z,3.11
2017-12-20T09:49:57.052Z,3.12
2017-12-20T09:51:07.000Z,3.08
2017-12-20T09:52:16.781Z,3
2017-12-20T09:53:26.504Z,3.06
2017-12-20T09:54:36.479Z,3
2017-12-20T09:55:46.469Z,2.93
2017-12-20T09:56:55.936Z,2.91
2017-12-20T09:58:05.649Z,2.91
2017-12-20T09:59:15.351Z,2.98
2017-12-20T10:00:25.088Z,2.97
2017-12-20T10:01:34.623Z,2.98
2017-12-20T10:02:44.602Z,2.95
2017-12-20T10:03:54.585Z,2.94
2017-12-20T10:05:04.577Z,2.95
2017-12-20T10:06:14.326Z,3.01
2017-12-20T10:07:24.052Z,2.94
2017-12-20T10:08:34.051Z,3.01
2017-12-20T10:09:44.010Z,2.97
2017-12-20T10:10:53.461Z,2.98
2017-12-20T10:12:03.442Z,3.06
2017-12-20T10:13:13.154Z,3.08
2017-12-20T10:14:23.118Z,3.11
2017-12-20T10:15:33.089Z,3.06
2017-12-20T10:16:42.786Z,3.13
2017-12-20T10:17:52.909Z,3.13
2017-12-20T10:19:02.611Z,3.13
2017-12-20T10:20:12.064Z,3.12
2017-12-20T10:21:21.766Z,3.11
2017-12-20T10:22:31.586Z,3.09
2017-12-20T10:23:41.301Z,3.11
2017-12-20T10:24:51.231Z,3.12
2017-12-20T10:26:00.951Z,3.15
2017-12-20T10:27:10.388Z,3.15
2017-12-20T10:28:20.159Z,3.06
2017-12-20T10:29:29.887Z,3.08
2017-12-20T10:30:39.848Z,3.12
2017-12-20T10:31:49.572Z,3.03
2017-12-20T10:32:59.538Z,3.15
2017-12-20T10:34:09.487Z,3.12
2017-12-20T10:35:19.229Z,3.09
2017-12-20T10:36:29.182Z,3.09
2017-12-20T10:37:38.883Z,3.19
2017-12-20T10:38:48.575Z,3.06
2017-12-20T10:39:58.518Z,3.22
2017-12-20T10:41:08.493Z,3.34
2017-12-20T10:42:18.476Z,3.3
2017-12-20T10:43:28.177Z,3.34
2017-12-20T10:44:37.868Z,3.34
2017-12-20T10:45:47.579Z,3.29
2017-12-20T10:46:57.520Z,3.36
2017-12-20T10:48:06.953Z,3.37
2017-12-20T10:49:16.913Z,3.41
2017-12-20T10:50:26.909Z,3.41
2017-12-20T10:51:36.346Z,3.3
2017-12-20T10:52:46.061Z,3.31
2017-12-20T10:53:56.023Z,3.3
2017-12-20T10:55:05.722Z,3.33
2017-12-20T10:56:15.676Z,3.33
2017-12-20T10:57:25.635Z,3.3
2017-12-20T10:58:35.593Z,3.4
2017-12-20T10:59:45.538Z,3.46
2017-12-20T11:00:55.499Z,3.41
2017-12-20T11:02:05.198Z,3.45
2017-12-20T11:03:14.905Z,3.43
2017-12-20T11:04:24.600Z,3.55
2017-12-20T11:05:33.777Z,3.49
2017-12-20T11:06:43.734Z,3.53
2017-12-20T11:07:53.708Z,3.59
2017-12-20T11:09:03.145Z,3.59
2017-12-20T11:10:13.147Z,3.46
2017-12-20T11:11:22.591Z,3.48
2017-12-20T11:12:32.318Z,3.41
2017-12-20T11:13:42.284Z,3.33
2017-12-20T11:14:52.245Z,3.34
2017-12-20T11:16:01.950Z,3.31
2017-12-20T11:17:11.683Z,3.45
2017-12-20T11:18:21.620Z,3.29
2017-12-20T11:19:31.053Z,3.29
2017-12-20T11:20:40.745Z,3.34
2017-12-20T11:21:50.440Z,3.34
2017-12-20T11:23:00.159Z,3.29
2017-12-20T11:24:10.147Z,3.24
2017-12-20T11:25:20.130Z,3.21
2017-12-20T11:26:30.089Z,3.33
2017-12-20T11:27:40.055Z,3.31
2017-12-20T11:28:49.750Z,3.41
2017-12-20T11:29:59.424Z,3.4
2017-12-20T11:31:09.380Z,3.45
2017-12-20T11:32:19.324Z,3.48
2017-12-20T11:33:28.753Z,3.45
2017-12-20T11:34:38.712Z,3.48
2017-12-20T11:35:48.672Z,3.55
2017-12-20T11:36:58.636Z,3.52
2017-12-20T11:38:08.347Z,3.53
2017-12-20T11:39:18.327Z,3.48
2017-12-20T11:40:28.035Z,3.48
2017-12-20T11:41:37.996Z,3.46
2017-12-20T11:42:47.454Z,3.43
2017-12-20T11:43:57.158Z,3.4
2017-12-20T11:45:06.918Z,3.4
2017-12-20T11:46:16.651Z,3.4
2017-12-20T11:47:26.090Z,3.34
2017-12-20T11:48:36.052Z,3.37
2017-12-20T11:49:45.747Z,3.46
2017-12-20T11:50:55.184Z,3.33
2017-12-20T11:52:05.155Z,3.27
2017-12-20T11:53:15.135Z,3.37
2017-12-20T11:54:24.846Z,3.43
2017-12-20T11:55:34.535Z,3.46
2017-12-20T11:56:43.714Z,3.56
2017-12-20T11:57:53.155Z,3.59
2017-12-20T11:59:02.594Z,3.68
2017-12-20T12:00:11.777Z,3.67
2017-12-20T12:01:21.231Z,3.74
2017-12-20T12:02:31.203Z,3.64
2017-12-20T12:03:40.727Z,3.67
2017-12-20T12:04:50.450Z,3.66
2017-12-20T12:06:00.162Z,3.68
2017-12-20T12:07:09.867Z,3.68
2017-12-20T12:08:19.884Z,3.7
2017-12-20T12:09:29.361Z,3.68
2017-12-20T12:10:39.063Z,3.66
2017-12-20T12:11:48.756Z,3.74
2017-12-20T12:12:57.929Z,3.7
2017-12-20T12:14:07.881Z,3.68
2017-12-20T12:15:17.325Z,3.67
2017-12-20T12:16:27.305Z,3.68
2017-12-20T12:17:37.009Z,3.66
2017-12-20T12:18:46.711Z,3.64
2017-12-20T12:19:56.411Z,3.73
2017-12-20T12:21:06.118Z,3.68
2017-12-20T12:22:16.081Z,3.64
2017-12-20T12:23:25.520Z,3.61
2017-12-20T12:24:34.951Z,3.5
2017-12-20T12:25:44.644Z,3.52
2017-12-20T12:26:53.823Z,3.58
2017-12-20T12:28:03.518Z,3.52
2017-12-20T12:29:13.221Z,3.52
2017-12-20T12:30:23.188Z,3.55
2017-12-20T12:31:32.635Z,3.56
2017-12-20T12:32:42.623Z,3.64
2017-12-20T12:33:52.076Z,3.59
2017-12-20T12:35:01.768Z,3.7
2017-12-20T12:36:11.473Z,3.67
2017-12-20T12:37:21.422Z,3.71
2017-12-20T12:38:31.127Z,3.68
2017-12-20T12:39:40.826Z,3.67
2017-12-20T12:40:50.774Z,3.7
2017-12-20T12:42:00.471Z,3.66
2017-12-20T12:43:10.188Z,3.64
2017-12-20T12:44:19.951Z,3.7
2017-12-20T12:45:29.918Z,3.74
2017-12-20T12:46:39.925Z,3.59
2017-12-20T12:47:50.364Z,3.7
2017-12-20T12:49:00.511Z,3.73
2017-12-20T12:50:10.706Z,3.59
2017-12-20T12:51:20.406Z,3.56
2017-12-20T12:52:30.365Z,3.63
2017-12-20T12:53:39.822Z,3.61
2017-12-20T12:54:49.788Z,3.7
2017-12-20T12:55:59.754Z,3.56
2017-12-20T12:57:09.467Z,3.71
2017-12-20T12:58:19.164Z,3.68
2017-12-20T12:59:28.597Z,3.67
2017-12-20T13:00:38.543Z,3.71
2017-12-20T13:01:47.985Z,3.71
2017-12-20T13:02:57.686Z,3.64
2017-12-20T13:04:07.649Z,3.81
2017-12-20T13:05:17.617Z,3.68
2017-12-20T13:06:27.597Z,3.78
2017-12-20T13:07:37.312Z,3.71
2017-12-20T13:08:47.279Z,3.89
2017-12-20T13:09:56.991Z,3.86
2017-12-20T13:11:06.676Z,3.78
2017-12-20T13:12:16.389Z,3.77
2017-12-20T13:13:26.154Z,3.81
2017-12-20T13:14:36.125Z,3.82
2017-12-20T13:15:46.085Z,3.66
2017-12-20T13:16:55.805Z,3.71
2017-12-20T13:18:05.766Z,3.68
2017-12-20T13:19:15.735Z,3.71
2017-12-20T13:20:25.710Z,3.74
2017-12-20T13:21:35.690Z,3.73
2017-12-20T13:22:45.403Z,3.86
2017-12-20T13:23:55.362Z,3.78
2017-12-20T13:25:04.558Z,3.82
2017-12-20T13:26:14.257Z,3.78
2017-12-20T13:27:23.954Z,3.84
2017-12-20T13:28:33.920Z,3.85
2017-12-20T13:29:43.892Z,3.85
2017-12-20T13:30:53.857Z,3.84
2017-12-20T13:32:03.290Z,3.88
2017-12-20T13:33:13.228Z,3.84
2017-12-20T13:34:22.679Z,3.91
2017-12-20T13:35:32.640Z,3.77
2017-12-20T13:36:41.817Z,3.88
2017-12-20T13:37:51.779Z,3.86
2017-12-20T13:39:01.747Z,3.82
2017-12-20T13:40:11.692Z,3.84
2017-12-20T13:41:21.715Z,3.84
2017-12-20T13:42:31.724Z,3.81
2017-12-20T13:43:41.419Z,3.86
2017-12-20T13:44:51.115Z,3.7
2017-12-20T13:46:00.551Z,3.71
2017-12-20T13:47:10.242Z,3.68
2017-12-20T13:48:20.227Z,3.73
2017-12-20T13:49:29.661Z,3.73
2017-12-20T13:50:39.632Z,3.68
2017-12-20T13:51:49.071Z,3.67
2017-12-20T13:52:58.759Z,3.67
2017-12-20T13:54:08.737Z,3.71
2017-12-20T13:55:18.445Z,3.84
2017-12-20T13:56:28.410Z,3.73
2017-12-20T13:57:38.110Z,3.76
2017-12-20T13:58:48.057Z,3.85
2017-12-20T13:59:57.751Z,3.86
2017-12-20T14:01:07.702Z,3.73
2017-12-20T14:02:17.652Z,3.81
2017-12-20T14:03:27.340Z,3.68
2017-12-20T14:04:36.799Z,3.73
2017-12-20T14:05:46.483Z,3.73
2017-12-20T14:06:55.929Z,3.74
2017-12-20T14:08:05.877Z,3.81
2017-12-20T14:09:15.572Z,3.82
2017-12-20T14:10:25.013Z,3.82
2017-12-20T14:11:34.461Z,3.71
2017-12-20T14:12:43.897Z,3.84
2017-12-20T14:13:53.879Z,3.73
2017-12-20T14:15:03.334Z,3.71
2017-12-20T14:16:12.778Z,3.7
2017-12-20T14:17:22.722Z,3.67
2017-12-20T14:18:32.161Z,3.66
2017-12-20T14:19:42.122Z,3.67
2017-12-20T14:20:51.814Z,3.7
2017-12-20T14:22:01.782Z,3.73
2017-12-20T14:23:11.494Z,3.77
2017-12-20T14:24:21.516Z,3.68
2017-12-20T14:25:31.222Z,3.71
2017-12-20T14:26:41.165Z,3.73
2017-12-20T14:27:50.600Z,3.78
2017-12-20T14:29:00.553Z,3.68
2017-12-20T14:30:10.511Z,3.71
2017-12-20T14:31:20.208Z,3.67
2017-12-20T14:32:29.898Z,3.7
2017-12-20T14:33:39.596Z,3.7
2017-12-20T14:34:49.291Z,3.68
2017-12-20T14:35:58.732Z,3.7
2017-12-20T14:37:08.699Z,3.66
2017-12-20T14:38:18.418Z,3.7
2017-12-20T14:39:28.133Z,3.71
2017-12-20T14:40:38.350Z,3.64
2017-12-20T14:41:48.051Z,3.59
2017-12-20T14:42:58.011Z,3.64
2017-12-20T14:44:07.776Z,3.63
2017-12-20T14:45:17.756Z,3.64
2017-12-20T14:46:27.186Z,3.59
2017-12-20T14:47:37.140Z,3.59
2017-12-20T14:48:46.839Z,3.58
2017-12-20T14:49:55.757Z,3.61
2017-12-20T14:51:05.446Z,3.63
2017-12-20T14:52:15.403Z,3.59
2017-12-20T14:53:25.349Z,3.56
2017-12-20T14:54:35.310Z,3.56
2017-12-20T14:55:45.256Z,3.61
2017-12-20T14:56:55.215Z,3.63
2017-12-20T14:58:04.918Z,3.63
2017-12-20T14:59:14.879Z,3.64
2017-12-20T15:00:24.589Z,3.61
2017-12-20T15:01:34.577Z,3.63
2017-12-20T15:02:44.531Z,3.63
2017-12-20T15:03:54.256Z,3.66
2017-12-20T15:05:03.708Z,3.56
2017-12-20T15:06:13.423Z,3.58
2017-12-20T15:07:23.127Z,3.67
2017-12-20T15:08:32.825Z,3.55
2017-12-20T15:09:42.528Z,3.56
2017-12-20T15:10:52.243Z,3.59
2017-12-20T15:12:01.977Z,3.59
2017-12-20T15:13:11.982Z,3.49
2017-12-20T15:14:21.942Z,3.52
2017-12-20T15:15:31.380Z,3.48
2017-12-20T15:16:41.393Z,3.52
2017-12-20T15:17:51.120Z,3.45
2017-12-20T15:19:01.090Z,3.56
2017-12-20T15:20:10.810Z,3.55
2017-12-20T15:21:20.495Z,3.58
2017-12-20T15:22:30.206Z,3.59
2017-12-20T15:23:39.918Z,3.61
2017-12-20T15:24:49.614Z,3.64
2017-12-20T15:25:59.579Z,3.56
2017-12-20T15:27:09.523Z,3.56
2017-12-20T15:28:19.213Z,3.59
2017-12-20T15:29:29.201Z,3.61
2017-12-20T15:30:38.643Z,3.58
2017-12-20T15:31:48.599Z,3.58
2017-12-20T15:32:58.041Z,3.61